Time;durP1;ratioP1;P1;durP2;ratioP2;P2;SDS_P1;SDS_P2;PMS_P1;PMS_P2;Temp;Humidity;BMP_temperature;BMP_pressure;BME280_temperature;BME280_humidity;BME280_pressure;Samples;Min_cycle;Max_cycle;Signal;HPM_P1;HPM_P2
2023/01/30 00:01:37;;;;;;;40.03;21.17;;;4.40;99.90;;;;;;5017241;28;20450;-55
2023/01/30 00:04:04;;;;;;;39.17;22.70;;;4.40;99.90;;;;;;5017088;28;20486;-55
2023/01/30 00:06:31;;;;;;;37.53;21.70;;;4.50;99.90;;;;;;5017231;28;20434;-55
2023/01/30 00:08:58;;;;;;;31.37;18.60;;;4.50;99.90;;;;;;5017096;28;20536;-55
2023/01/30 00:11:27;;;;;;;39.30;21.60;;;4.50;99.90;;;;;;5017000;28;20467;-55
2023/01/30 00:13:56;;;;;;;32.67;20.13;;;4.50;99.90;;;;;;5016528;28;21010;-56
2023/01/30 00:16:23;;;;;;;35.47;20.67;;;4.50;99.90;;;;;;5016514;28;21003;-56
2023/01/30 00:18:49;;;;;;;36.17;20.07;;;4.60;99.90;;;;;;5016694;28;20437;-55
2023/01/30 00:21:16;;;;;;;36.10;20.73;;;4.60;99.90;;;;;;5016885;28;20465;-55
2023/01/30 00:23:43;;;;;;;37.43;21.10;;;4.60;99.90;;;;;;5016770;28;20482;-55
2023/01/30 00:26:11;;;;;;;36.17;22.67;;;4.60;99.90;;;;;;5016752;28;20454;-56
2023/01/30 00:28:39;;;;;;;35.70;21.13;;;4.60;99.90;;;;;;5016770;28;20452;-55
2023/01/30 00:31:08;;;;;;;41.53;23.27;;;4.60;99.90;;;;;;5016405;28;20454;-55
2023/01/30 00:33:36;;;;;;;32.40;20.10;;;4.70;99.90;;;;;;5016612;28;20480;-55
2023/01/30 00:36:04;;;;;;;38.80;21.07;;;4.70;99.90;;;;;;5016588;28;20474;-55
2023/01/30 00:38:31;;;;;;;37.77;20.77;;;4.70;99.90;;;;;;5016242;28;20470;-56
2023/01/30 00:40:58;;;;;;;40.03;22.90;;;4.70;99.90;;;;;;5016499;28;20459;-55
2023/01/30 00:49:00;;;;;;;38.20;21.50;;;4.80;99.90;;;;;;5016502;28;20413;-55
2023/01/30 00:51:27;;;;;;;34.73;20.73;;;4.80;99.90;;;;;;5016405;28;20442;-56
2023/01/30 00:53:54;;;;;;;34.33;20.37;;;4.80;99.90;;;;;;5016138;28;21018;-56
2023/01/30 00:56:21;;;;;;;34.73;21.77;;;4.80;99.90;;;;;;5016492;28;20494;-55
2023/01/30 00:58:48;;;;;;;36.87;22.73;;;4.80;99.90;;;;;;5016140;28;20482;-55
2023/01/30 01:01:17;;;;;;;34.70;20.87;;;4.80;99.90;;;;;;5016059;28;20433;-55
2023/01/30 01:03:44;;;;;;;34.60;20.67;;;4.80;99.90;;;;;;5015735;28;20478;-55
2023/01/30 01:06:11;;;;;;;38.50;21.27;;;4.90;99.90;;;;;;5016090;28;20452;-56
2023/01/30 01:08:38;;;;;;;34.07;23.00;;;4.90;99.90;;;;;;5016167;28;20826;-55
2023/01/30 01:11:04;;;;;;;40.10;22.87;;;4.90;99.90;;;;;;5016007;28;20447;-55
2023/01/30 01:13:31;;;;;;;33.73;20.40;;;4.90;99.90;;;;;;5015482;28;21002;-56
2023/01/30 01:15:58;;;;;;;36.07;22.20;;;4.90;99.90;;;;;;5014717;28;20502;-55
2023/01/30 01:18:26;;;;;;;40.37;21.43;;;4.90;99.90;;;;;;5015545;28;20950;-55
2023/01/30 01:20:53;;;;;;;34.47;20.00;;;4.90;99.90;;;;;;5015855;28;20462;-55
2023/01/30 01:23:20;;;;;;;36.23;20.70;;;4.90;99.90;;;;;;5015780;28;20469;-55
2023/01/30 01:25:46;;;;;;;33.70;20.17;;;4.90;99.90;;;;;;5016253;28;20455;-55
2023/01/30 01:28:13;;;;;;;36.10;20.70;;;5.00;99.90;;;;;;5015475;28;20449;-55
2023/01/30 01:30:40;;;;;;;33.20;22.17;;;4.90;99.90;;;;;;5015629;28;20443;-56
2023/01/30 01:33:06;;;;;;;36.00;22.30;;;5.00;99.90;;;;;;5015542;28;20478;-56
2023/01/30 01:35:39;;;;;;;33.93;19.00;;;5.00;99.90;;;;;;5015520;28;20481;-55
2023/01/30 01:38:06;;;;;;;42.90;21.00;;;5.10;99.90;;;;;;5015505;28;20963;-56
2023/01/30 01:43:19;;;;;;;33.00;21.17;;;5.10;99.90;;;;;;5015276;28;20816;-55
2023/01/30 01:45:51;;;;;;;37.87;21.20;;;5.10;99.90;;;;;;5015410;28;20458;-55
2023/01/30 01:48:22;;;;;;;38.20;22.20;;;5.10;99.90;;;;;;5015155;28;20438;-55
2023/01/30 01:50:56;;;;;;;33.40;20.60;;;5.10;99.90;;;;;;5015449;28;20439;-54
2023/01/30 01:53:29;;;;;;;36.10;21.87;;;5.10;99.90;;;;;;5014764;28;20467;-56
2023/01/30 01:55:57;;;;;;;37.13;21.33;;;5.10;99.90;;;;;;5015154;28;20475;-55
2023/01/30 01:58:29;;;;;;;32.90;20.67;;;5.10;99.90;;;;;;5015269;28;20454;-55
2023/01/30 02:00:58;;;;;;;32.53;20.70;;;5.10;99.90;;;;;;5015081;28;20438;-55
2023/01/30 02:03:28;;;;;;;35.07;19.40;;;5.20;99.90;;;;;;5014964;28;20529;-56
2023/01/30 02:06:00;;;;;;;35.67;21.33;;;5.20;99.90;;;;;;5014715;28;20956;-55
2023/01/30 02:08:32;;;;;;;32.60;19.00;;;5.20;99.90;;;;;;5014694;28;20446;-56
2023/01/30 02:11:03;;;;;;;35.10;21.03;;;5.20;99.90;;;;;;5015668;28;20449;-56
2023/01/30 02:13:30;;;;;;;29.67;18.20;;;5.20;99.90;;;;;;5014058;28;20498;-56
2023/01/30 02:15:59;;;;;;;33.10;20.50;;;5.30;99.90;;;;;;5014720;28;20495;-55
2023/01/30 02:18:27;;;;;;;31.63;19.30;;;5.20;99.90;;;;;;5014782;28;20430;-56
2023/01/30 02:21:26;;;;;;;30.43;18.73;;;5.20;99.90;;;;;;5015104;28;20451;-56
2023/01/30 02:24:19;;;;;;;34.30;20.23;;;5.20;99.90;;;;;;5010618;28;20479;-55
2023/01/30 02:27:00;;;;;;;39.43;20.33;;;5.20;99.90;;;;;;5014550;28;20442;-55
2023/01/30 02:29:53;;;;;;;38.47;23.00;;;5.20;99.90;;;;;;5014797;28;20451;-55
2023/01/30 02:32:31;;;;;;;36.43;21.20;;;5.20;99.90;;;;;;5015024;28;20446;-55
2023/01/30 02:35:04;;;;;;;31.03;18.43;;;5.20;99.90;;;;;;5015027;28;20439;-55
2023/01/30 02:37:44;;;;;;;33.70;20.40;;;5.20;99.90;;;;;;5014909;28;20502;-57
2023/01/30 02:40:23;;;;;;;30.00;18.93;;;5.20;99.90;;;;;;5014780;28;20431;-55
2023/01/30 02:43:01;;;;;;;38.10;20.00;;;5.20;99.90;;;;;;5014769;28;20476;-56
2023/01/30 02:45:34;;;;;;;32.87;20.60;;;5.30;99.90;;;;;;5015261;28;20799;-55
2023/01/30 02:48:04;;;;;;;39.50;23.43;;;5.30;99.90;;;;;;5016019;28;20978;-55
2023/01/30 02:50:36;;;;;;;34.10;19.43;;;5.30;99.90;;;;;;5015760;28;20458;-55
2023/01/30 02:53:06;;;;;;;33.03;21.30;;;5.30;99.90;;;;;;5016142;28;20463;-55
2023/01/30 02:55:32;;;;;;;34.60;20.27;;;5.30;99.90;;;;;;5015680;28;20456;-56
2023/01/30 02:58:00;;;;;;;37.03;20.40;;;5.30;99.90;;;;;;5016900;28;20452;-55
2023/01/30 03:00:41;;;;;;;28.30;19.03;;;5.30;99.90;;;;;;5016321;28;20459;-55
2023/01/30 03:03:21;;;;;;;35.60;20.53;;;5.30;99.90;;;;;;5017052;28;20474;-55
2023/01/30 03:06:10;;;;;;;33.17;20.70;;;5.30;99.90;;;;;;5016682;28;20442;-55
2023/01/30 03:08:45;;;;;;;41.40;23.13;;;5.30;99.90;;;;;;5015727;28;20955;-56
2023/01/30 03:11:13;;;;;;;33.20;20.90;;;5.30;99.90;;;;;;5016627;28;20438;-55
2023/01/30 03:13:48;;;;;;;33.57;20.90;;;5.30;99.90;;;;;;5015492;28;20475;-55
2023/01/30 03:16:20;;;;;;;36.87;21.40;;;5.30;99.90;;;;;;5016092;28;20481;-55
2023/01/30 03:18:50;;;;;;;36.60;22.13;;;5.30;99.90;;;;;;5016580;28;20436;-56
2023/01/30 03:21:17;;;;;;;36.80;21.37;;;5.30;99.90;;;;;;5013474;28;20868;-56
2023/01/30 03:23:46;;;;;;;38.73;21.27;;;5.30;99.90;;;;;;5013868;28;20504;-55
2023/01/30 03:26:17;;;;;;;39.13;22.87;;;5.30;99.90;;;;;;5013551;28;20497;-55
2023/01/30 03:28:46;;;;;;;32.90;19.97;;;5.40;99.90;;;;;;5013620;28;20443;-56
2023/01/30 03:31:13;;;;;;;34.83;21.27;;;5.30;99.90;;;;;;5013684;28;20463;-55
2023/01/30 03:33:39;;;;;;;35.10;19.57;;;5.30;99.90;;;;;;5014366;28;20474;-55
2023/01/30 03:36:08;;;;;;;30.50;20.13;;;5.30;99.90;;;;;;5013551;28;20495;-56
2023/01/30 03:38:36;;;;;;;36.70;20.43;;;5.30;99.90;;;;;;5013176;28;20459;-55
2023/01/30 03:41:03;;;;;;;25.17;17.27;;;5.30;99.90;;;;;;5013886;28;20948;-55
2023/01/30 03:43:30;;;;;;;34.50;19.90;;;5.40;99.90;;;;;;5013404;28;20471;-56
2023/01/30 03:45:57;;;;;;;33.40;18.70;;;5.40;99.90;;;;;;5013580;28;20442;-55
2023/01/30 03:48:24;;;;;;;31.70;21.50;;;5.40;99.90;;;;;;5012270;28;20452;-55
2023/01/30 03:50:51;;;;;;;30.07;19.90;;;5.50;99.90;;;;;;5013500;28;20458;-55
2023/01/30 03:53:19;;;;;;;33.30;19.10;;;5.50;99.90;;;;;;5013326;28;20523;-56
2023/01/30 03:55:46;;;;;;;34.67;21.40;;;5.50;99.90;;;;;;5012252;28;20818;-56
2023/01/30 03:58:12;;;;;;;26.97;19.70;;;5.60;99.90;;;;;;5012235;28;20462;-56
2023/01/30 04:00:39;;;;;;;26.00;18.30;;;5.60;99.90;;;;;;5013330;28;20785;-55
2023/01/30 04:03:06;;;;;;;33.20;20.60;;;5.60;99.90;;;;;;5012947;28;20844;-55
2023/01/30 04:05:33;;;;;;;34.90;21.90;;;5.60;99.90;;;;;;5013037;28;20952;-56
2023/01/30 04:08:00;;;;;;;31.73;20.73;;;5.70;99.90;;;;;;5012995;28;20458;-55
2023/01/30 04:10:28;;;;;;;34.43;22.20;;;5.70;99.90;;;;;;5012865;28;20806;-56
2023/01/30 04:12:55;;;;;;;33.57;20.47;;;5.70;99.90;;;;;;5013965;28;20479;-56
2023/01/30 04:15:21;;;;;;;27.80;19.80;;;5.70;99.90;;;;;;5013260;28;20460;-56
2023/01/30 04:17:48;;;;;;;34.63;20.73;;;5.70;99.90;;;;;;5013194;28;20483;-55
2023/01/30 04:20:16;;;;;;;31.40;19.73;;;5.70;99.90;;;;;;5013235;28;20454;-55
2023/01/30 04:22:42;;;;;;;30.97;20.27;;;5.70;99.90;;;;;;5013063;28;20467;-55
2023/01/30 04:25:09;;;;;;;34.43;22.37;;;5.70;99.90;;;;;;5013057;28;20463;-55
2023/01/30 04:27:38;;;;;;;32.27;19.50;;;5.70;99.90;;;;;;5012998;28;20462;-55
2023/01/30 04:30:06;;;;;;;32.60;19.53;;;5.70;99.90;;;;;;5013179;28;20457;-55
2023/01/30 04:32:33;;;;;;;32.80;22.13;;;5.80;99.90;;;;;;5012987;28;20479;-54
2023/01/30 04:34:59;;;;;;;30.40;19.97;;;5.80;99.90;;;;;;5013005;28;20446;-54
2023/01/30 04:37:26;;;;;;;34.10;19.73;;;5.80;99.90;;;;;;5014139;28;20582;-55
2023/01/30 04:39:54;;;;;;;29.80;18.10;;;5.80;99.90;;;;;;5017449;28;20514;-54
2023/01/30 04:42:21;;;;;;;34.97;19.77;;;5.80;99.90;;;;;;5016547;28;20439;-54
2023/01/30 04:44:49;;;;;;;33.03;21.27;;;5.70;99.90;;;;;;5016433;28;20458;-54
2023/01/30 04:47:16;;;;;;;32.00;20.87;;;5.70;99.90;;;;;;5016459;28;20809;-54
2023/01/30 04:49:43;;;;;;;30.73;18.80;;;5.80;99.90;;;;;;5016504;28;20428;-54
2023/01/30 04:52:10;;;;;;;32.70;23.20;;;5.70;99.90;;;;;;5016006;28;20969;-54
2023/01/30 04:54:36;;;;;;;34.93;23.13;;;5.70;99.90;;;;;;5016281;28;20448;-54
2023/01/30 04:57:03;;;;;;;31.70;20.93;;;5.70;99.90;;;;;;5015981;28;20491;-54
2023/01/30 04:59:30;;;;;;;34.10;20.70;;;5.70;99.90;;;;;;5016070;28;20457;-54
2023/01/30 05:01:58;;;;;;;35.40;23.27;;;5.80;99.90;;;;;;5016161;28;20459;-54
2023/01/30 05:04:25;;;;;;;36.37;21.23;;;5.70;99.90;;;;;;5016028;28;20497;-53
2023/01/30 05:06:52;;;;;;;37.30;20.73;;;5.80;99.90;;;;;;5016202;28;20436;-54
2023/01/30 05:09:19;;;;;;;30.80;21.57;;;5.80;99.90;;;;;;5015748;28;20455;-54
2023/01/30 05:11:46;;;;;;;29.67;18.23;;;5.80;99.90;;;;;;5015976;28;20448;-54
2023/01/30 05:14:12;;;;;;;33.77;19.93;;;5.80;99.90;;;;;;5015281;28;20864;-54
2023/01/30 05:16:39;;;;;;;32.80;19.07;;;5.80;99.90;;;;;;5015855;28;20481;-54
2023/01/30 05:19:09;;;;;;;28.80;19.03;;;5.90;99.90;;;;;;5015884;28;20450;-54
2023/01/30 05:21:35;;;;;;;30.63;18.87;;;5.80;99.90;;;;;;5015605;28;20807;-55
2023/01/30 05:24:02;;;;;;;29.07;20.30;;;5.80;99.90;;;;;;5015488;28;20463;-54
2023/01/30 05:26:29;;;;;;;31.13;18.77;;;5.80;99.90;;;;;;5015696;28;20451;-54
2023/01/30 05:28:57;;;;;;;29.73;18.90;;;5.80;99.90;;;;;;5015652;28;20456;-54
2023/01/30 05:31:25;;;;;;;27.77;17.50;;;5.90;99.90;;;;;;5015317;28;20443;-54
2023/01/30 05:33:52;;;;;;;37.83;18.77;;;5.90;99.90;;;;;;5021525;28;20498;-52
2023/01/30 05:36:21;;;;;;;26.70;17.73;;;5.90;99.90;;;;;;5015025;28;20779;-54
2023/01/30 05:38:48;;;;;;;27.40;17.87;;;5.90;99.90;;;;;;5015133;28;20505;-54
2023/01/30 05:41:17;;;;;;;25.83;18.50;;;5.90;99.90;;;;;;5015100;28;20529;-55
2023/01/30 05:43:43;;;;;;;24.93;17.07;;;5.90;99.90;;;;;;5015716;28;20479;-54
2023/01/30 05:46:12;;;;;;;23.53;16.10;;;5.90;99.90;;;;;;5015274;28;20463;-55
2023/01/30 05:48:39;;;;;;;25.03;17.90;;;5.90;99.90;;;;;;5015248;28;20424;-54
2023/01/30 05:51:06;;;;;;;23.83;17.30;;;6.00;99.90;;;;;;5014838;28;20947;-55
2023/01/30 05:53:34;;;;;;;30.27;19.37;;;6.10;99.90;;;;;;5015478;28;20472;-54
2023/01/30 05:56:03;;;;;;;26.20;17.30;;;6.00;99.90;;;;;;5014852;28;20952;-54
2023/01/30 05:58:31;;;;;;;26.13;16.70;;;6.10;99.90;;;;;;5015072;28;20471;-55
2023/01/30 06:01:02;;;;;;;24.87;16.97;;;6.10;99.90;;;;;;5014973;28;20458;-55
2023/01/30 06:03:29;;;;;;;23.83;17.07;;;6.10;99.90;;;;;;5014958;28;20480;-55
2023/01/30 06:05:56;;;;;;;31.00;17.60;;;6.20;99.90;;;;;;5014888;28;20443;-55
2023/01/30 06:08:23;;;;;;;23.37;16.87;;;6.20;99.90;;;;;;5015515;28;20439;-55
2023/01/30 06:10:51;;;;;;;23.50;18.10;;;6.20;99.90;;;;;;5014762;28;20469;-55
2023/01/30 06:13:18;;;;;;;27.17;17.63;;;6.20;99.90;;;;;;5014647;28;20470;-55
2023/01/30 06:15:45;;;;;;;24.50;16.30;;;6.30;99.90;;;;;;5014817;28;20462;-55
2023/01/30 06:18:12;;;;;;;27.50;18.90;;;6.30;99.90;;;;;;5014707;28;20467;-54
2023/01/30 06:20:38;;;;;;;27.63;19.13;;;6.30;99.90;;;;;;5014644;28;20455;-55
2023/01/30 06:23:05;;;;;;;23.97;16.90;;;6.30;99.90;;;;;;5014620;28;20475;-55
2023/01/30 06:25:32;;;;;;;29.17;20.40;;;6.30;99.90;;;;;;5014677;28;20452;-55
2023/01/30 06:28:00;;;;;;;23.93;17.77;;;6.40;99.90;;;;;;5014567;28;20448;-55
2023/01/30 06:30:27;;;;;;;27.93;19.53;;;6.30;99.90;;;;;;5014596;28;20446;-54
2023/01/30 06:32:54;;;;;;;29.03;18.80;;;6.40;99.90;;;;;;5014487;28;20475;-54
2023/01/30 06:35:20;;;;;;;27.00;17.73;;;6.40;99.90;;;;;;5013103;28;20424;-55
2023/01/30 06:37:47;;;;;;;24.23;17.63;;;6.40;99.90;;;;;;5013705;28;20481;-55
2023/01/30 06:40:14;;;;;;;23.93;17.97;;;6.40;99.90;;;;;;5021515;28;20450;-54
2023/01/30 06:42:45;;;;;;;28.07;19.17;;;6.40;99.90;;;;;;5033399;28;21009;-55
2023/01/30 06:45:14;;;;;;;23.77;18.43;;;6.40;99.90;;;;;;5033874;28;20482;-54
2023/01/30 06:47:48;;;;;;;26.10;18.07;;;6.40;99.90;;;;;;5034003;28;20457;-54
2023/01/30 06:50:16;;;;;;;27.60;17.53;;;6.50;99.90;;;;;;5033880;28;20455;-53
2023/01/30 06:52:44;;;;;;;26.03;15.53;;;6.50;99.90;;;;;;5033862;28;20470;-53
2023/01/30 06:55:13;;;;;;;25.00;17.07;;;6.50;99.90;;;;;;5033909;28;20786;-53
2023/01/30 06:57:40;;;;;;;22.23;14.97;;;6.60;99.90;;;;;;5033998;28;20485;-54
2023/01/30 07:00:10;;;;;;;18.93;14.90;;;6.60;99.90;;;;;;5033613;28;20437;-54
2023/01/30 07:02:39;;;;;;;23.30;15.73;;;6.60;99.90;;;;;;5033348;28;20474;-54
2023/01/30 07:05:07;;;;;;;19.13;14.07;;;6.60;99.90;;;;;;5033570;28;20452;-54
2023/01/30 07:07:35;;;;;;;17.97;14.20;;;6.70;99.90;;;;;;5033699;28;20444;-54
2023/01/30 07:10:03;;;;;;;22.67;14.43;;;6.70;99.90;;;;;;5033581;28;20450;-54
2023/01/30 07:12:30;;;;;;;21.57;15.33;;;6.60;99.90;;;;;;5033548;28;20477;-54
2023/01/30 07:14:57;;;;;;;22.03;15.00;;;6.70;99.90;;;;;;5033555;28;20459;-54
2023/01/30 07:17:24;;;;;;;23.37;14.50;;;6.70;99.90;;;;;;5033514;28;20473;-54
2023/01/30 07:19:52;;;;;;;20.77;15.40;;;6.70;99.90;;;;;;5033504;28;20450;-54
2023/01/30 07:22:19;;;;;;;25.17;14.77;;;6.70;99.90;;;;;;5033304;28;20460;-54
2023/01/30 07:24:45;;;;;;;21.50;13.83;;;6.70;99.90;;;;;;5033493;28;20509;-54
2023/01/30 07:27:13;;;;;;;26.10;14.70;;;6.70;99.90;;;;;;5033205;28;20942;-54
2023/01/30 07:29:40;;;;;;;24.63;15.90;;;6.80;99.90;;;;;;5033400;28;20439;-54
2023/01/30 07:32:13;;;;;;;22.27;14.87;;;6.80;99.90;;;;;;5033334;28;20462;-54
2023/01/30 07:34:40;;;;;;;26.97;17.77;;;6.80;99.90;;;;;;5033400;28;20440;-55
2023/01/30 07:37:08;;;;;;;21.80;16.67;;;6.80;99.90;;;;;;5032919;28;20474;-55
2023/01/30 07:39:35;;;;;;;25.37;17.80;;;6.80;99.90;;;;;;5032940;28;20431;-55
2023/01/30 07:42:03;;;;;;;27.00;17.70;;;6.80;99.90;;;;;;5033305;28;20423;-55
2023/01/30 07:44:30;;;;;;;24.33;18.13;;;6.80;99.90;;;;;;5033119;28;20479;-55
2023/01/30 07:46:56;;;;;;;24.70;16.77;;;6.90;99.90;;;;;;5033376;28;20434;-55
2023/01/30 07:49:23;;;;;;;25.60;18.47;;;6.90;99.90;;;;;;5033322;28;20438;-55
2023/01/30 07:51:50;;;;;;;24.60;18.67;;;6.90;99.90;;;;;;5031726;28;21007;-55
2023/01/30 07:54:18;;;;;;;22.73;17.83;;;7.00;99.90;;;;;;5033671;28;20473;-55
2023/01/30 07:56:45;;;;;;;25.57;16.73;;;7.00;99.90;;;;;;5033183;28;20438;-55
2023/01/30 07:59:12;;;;;;;25.40;18.77;;;7.00;99.90;;;;;;5032693;28;20493;-55
2023/01/30 08:01:39;;;;;;;25.40;16.67;;;7.00;99.90;;;;;;5033118;28;20431;-55
2023/01/30 08:04:06;;;;;;;25.00;16.97;;;7.00;99.90;;;;;;5033938;28;20809;-55
2023/01/30 08:06:37;;;;;;;26.47;17.27;;;7.10;99.90;;;;;;5033020;28;20462;-55
2023/01/30 08:09:04;;;;;;;27.03;16.90;;;7.10;99.90;;;;;;5033157;28;20523;-56
2023/01/30 08:11:33;;;;;;;23.50;16.97;;;7.00;99.90;;;;;;5033110;28;20432;-55
2023/01/30 08:14:01;;;;;;;22.93;16.23;;;7.00;99.90;;;;;;5029663;28;20498;-55
2023/01/30 08:16:27;;;;;;;25.70;16.07;;;7.00;99.90;;;;;;5016780;28;20970;-55
2023/01/30 08:18:54;;;;;;;27.60;15.40;;;7.10;99.90;;;;;;5016979;28;20482;-56
2023/01/30 08:21:21;;;;;;;21.20;14.93;;;7.00;99.90;;;;;;5016890;28;20447;-55
2023/01/30 08:23:47;;;;;;;31.53;17.30;;;7.10;99.90;;;;;;5016873;28;20467;-55
2023/01/30 08:26:14;;;;;;;21.80;16.13;;;7.10;99.90;;;;;;5016589;28;20822;-55
2023/01/30 08:28:43;;;;;;;24.43;15.13;;;7.10;99.90;;;;;;5016976;28;20796;-55
2023/01/30 08:31:11;;;;;;;25.90;14.80;;;7.10;99.90;;;;;;5016670;28;20462;-55
2023/01/30 08:33:38;;;;;;;19.10;14.73;;;7.10;99.90;;;;;;5016691;28;20472;-55
2023/01/30 08:36:05;;;;;;;20.87;14.60;;;7.20;99.90;;;;;;5016734;28;20432;-55
2023/01/30 08:38:32;;;;;;;19.10;14.50;;;7.20;99.90;;;;;;5016323;28;20498;-55
2023/01/30 08:40:59;;;;;;;21.37;13.70;;;7.20;99.90;;;;;;5016590;28;20471;-55
2023/01/30 08:43:27;;;;;;;17.83;13.57;;;7.20;99.90;;;;;;5016097;28;20459;-55
2023/01/30 08:45:56;;;;;;;23.73;13.70;;;7.30;99.90;;;;;;5016471;28;20458;-55
2023/01/30 08:48:23;;;;;;;17.37;13.37;;;7.30;99.90;;;;;;5016457;28;20459;-56
2023/01/30 08:50:52;;;;;;;19.83;11.47;;;7.30;99.90;;;;;;5016377;28;20463;-55
2023/01/30 08:53:20;;;;;;;17.73;12.27;;;7.30;99.90;;;;;;5016029;28;20844;-55
2023/01/30 08:55:49;;;;;;;20.10;10.33;;;7.40;99.90;;;;;;5016293;28;20462;-55
2023/01/30 08:58:16;;;;;;;18.93;10.03;;;7.40;99.90;;;;;;5016199;28;20468;-55
2023/01/30 09:00:43;;;;;;;20.13;9.70;;;7.40;99.90;;;;;;5016293;28;20452;-55
2023/01/30 09:03:13;;;;;;;18.70;8.67;;;7.40;99.90;;;;;;5016192;28;20487;-55
2023/01/30 09:05:40;;;;;;;13.57;9.03;;;7.40;99.90;;;;;;5016130;28;20463;-55
2023/01/30 09:08:07;;;;;;;15.93;7.17;;;7.40;99.90;;;;;;5016138;28;20446;-55
2023/01/30 09:10:34;;;;;;;15.33;7.67;;;7.50;99.90;;;;;;5016178;28;20456;-56
2023/01/30 09:13:01;;;;;;;14.40;7.03;;;7.50;99.90;;;;;;5015898;28;20491;-55
2023/01/30 09:15:27;;;;;;;13.60;6.40;;;7.60;99.90;;;;;;5016291;28;20459;-55
2023/01/30 09:17:54;;;;;;;10.67;5.87;;;7.60;99.90;;;;;;5016026;28;20847;-56
2023/01/30 09:20:24;;;;;;;18.40;7.27;;;7.60;99.90;;;;;;5015945;28;20460;-55
2023/01/30 09:22:51;;;;;;;9.73;5.30;;;7.50;99.90;;;;;;5014353;28;20502;-55
2023/01/30 09:25:17;;;;;;;9.17;5.30;;;7.60;99.90;;;;;;5015923;28;20436;-55
2023/01/30 09:27:47;;;;;;;10.20;4.40;;;7.60;99.90;;;;;;5015831;28;20456;-55
2023/01/30 09:30:15;;;;;;;16.30;4.90;;;7.60;99.90;;;;;;5014582;28;20448;-55
2023/01/30 09:32:41;;;;;;;13.10;4.00;;;7.70;99.90;;;;;;5015709;28;20475;-55
2023/01/30 09:35:08;;;;;;;13.63;4.40;;;7.60;99.90;;;;;;5016462;28;20491;-55
2023/01/30 09:37:36;;;;;;;10.23;3.63;;;7.70;99.90;;;;;;5016245;28;20468;-55
2023/01/30 09:40:04;;;;;;;12.00;3.70;;;7.70;99.90;;;;;;5016545;28;20447;-55
2023/01/30 09:42:52;;;;;;;12.53;4.50;;;7.70;99.90;;;;;;5015834;28;20981;-56
2023/01/30 09:45:37;;;;;;;10.50;3.40;;;7.80;99.90;;;;;;5017320;28;20912;-55
2023/01/30 09:48:14;;;;;;;10.70;2.97;;;7.80;99.90;;;;;;5016663;28;20800;-55
2023/01/30 09:51:15;;;;;;;10.00;4.17;;;7.80;99.90;;;;;;5015396;28;20428;-55
2023/01/30 09:54:14;;;;;;;15.07;3.37;;;7.90;99.90;;;;;;5015386;28;20463;-55
2023/01/30 09:56:41;;;;;;;17.60;3.80;;;7.90;99.90;;;;;;5015560;28;20796;-55
2023/01/30 09:59:18;;;;;;;8.83;2.60;;;7.90;99.90;;;;;;5015346;28;20522;-56
2023/01/30 10:01:53;;;;;;;8.50;3.53;;;7.90;99.90;;;;;;5015438;28;20441;-55
2023/01/30 10:04:27;;;;;;;16.60;2.93;;;8.00;99.90;;;;;;5015208;28;20482;-55
2023/01/30 10:07:05;;;;;;;9.30;2.90;;;8.10;99.90;;;;;;5015009;28;20946;-55
2023/01/30 10:09:41;;;;;;;16.03;2.93;;;8.10;99.90;;;;;;5014991;28;20441;-55
2023/01/30 10:12:35;;;;;;;19.87;3.67;;;8.20;99.90;;;;;;5014842;28;20492;-55
2023/01/30 10:15:38;;;;;;;9.07;3.00;;;8.30;99.90;;;;;;5014804;28;20438;-55
2023/01/30 10:18:44;;;;;;;17.63;3.40;;;8.40;99.90;;;;;;5008225;28;20487;-55
2023/01/30 10:21:20;;;;;;;17.30;3.10;;;8.30;99.90;;;;;;5014821;28;20431;-55
2023/01/30 10:24:12;;;;;;;19.37;3.10;;;8.30;99.90;;;;;;5014671;28;20478;-55
2023/01/30 10:26:42;;;;;;;10.90;3.00;;;8.20;99.80;;;;;;5014690;28;20435;-54
2023/01/30 10:29:15;;;;;;;8.87;2.50;;;8.20;99.70;;;;;;5014338;28;20945;-55
2023/01/30 10:31:46;;;;;;;14.53;3.13;;;8.30;99.50;;;;;;5014273;28;20909;-55
2023/01/30 10:34:18;;;;;;;14.83;3.20;;;8.30;99.90;;;;;;5014393;28;20478;-55
2023/01/30 10:36:52;;;;;;;16.57;2.70;;;8.30;99.90;;;;;;5014259;28;20452;-55
2023/01/30 10:39:26;;;;;;;15.57;3.47;;;8.30;99.40;;;;;;5014043;28;20501;-55
2023/01/30 10:42:02;;;;;;;14.20;2.87;;;8.30;99.80;;;;;;5014311;28;20444;-56
2023/01/30 10:44:29;;;;;;;16.50;3.47;;;8.40;99.70;;;;;;5014227;28;20841;-55
2023/01/30 10:47:24;;;;;;;14.63;4.13;;;8.40;98.60;;;;;;5014396;28;20774;-55
2023/01/30 10:49:53;;;;;;;14.70;2.90;;;8.40;98.60;;;;;;5014276;28;20437;-55
2023/01/30 10:52:30;;;;;;;14.50;2.90;;;8.30;97.90;;;;;;5013792;28;20435;-55
2023/01/30 10:55:06;;;;;;;10.93;2.63;;;8.30;98.50;;;;;;5014183;28;20427;-54
2023/01/30 10:57:47;;;;;;;18.53;2.50;;;8.30;99.20;;;;;;5014175;28;20429;-55
2023/01/30 11:00:23;;;;;;;11.73;3.63;;;8.20;98.60;;;;;;5012824;28;20484;-54
2023/01/30 11:03:04;;;;;;;19.53;3.13;;;8.20;98.80;;;;;;5014010;28;20470;-54
2023/01/30 11:05:39;;;;;;;19.97;2.73;;;8.30;98.60;;;;;;5013969;28;20453;-54
2023/01/30 11:08:15;;;;;;;24.23;3.20;;;8.20;98.20;;;;;;5013715;28;20930;-54
2023/01/30 11:10:42;;;;;;;13.60;3.30;;;8.20;97.90;;;;;;5013925;28;20454;-54
2023/01/30 11:13:16;;;;;;;7.10;2.80;;;8.20;98.10;;;;;;5013790;28;20490;-55
2023/01/30 11:15:46;;;;;;;16.93;3.00;;;8.10;97.80;;;;;;5013910;28;20777;-54
2023/01/30 11:18:14;;;;;;;11.93;2.63;;;8.10;98.00;;;;;;5014134;28;20448;-54
2023/01/30 11:20:44;;;;;;;13.57;3.53;;;8.10;97.80;;;;;;5013758;28;20443;-54
2023/01/30 11:23:25;;;;;;;14.37;2.60;;;8.00;97.30;;;;;;5014097;28;20510;-54
2023/01/30 11:25:55;;;;;;;14.10;3.10;;;8.00;98.00;;;;;;5013799;28;20445;-54
2023/01/30 11:28:25;;;;;;;13.40;2.80;;;8.00;98.10;;;;;;5013705;28;20460;-54
2023/01/30 11:30:56;;;;;;;13.20;3.00;;;8.00;97.60;;;;;;5013740;28;20454;-54
2023/01/30 11:33:31;;;;;;;15.80;3.50;;;8.00;98.20;;;;;;5013581;28;20463;-54
2023/01/30 11:35:59;;;;;;;15.57;3.03;;;8.10;98.10;;;;;;5013666;28;20437;-55
2023/01/30 11:38:28;;;;;;;17.00;3.17;;;8.10;97.90;;;;;;5013258;28;20504;-55
2023/01/30 11:41:16;;;;;;;15.53;3.57;;;8.10;97.90;;;;;;5013544;28;20808;-56
2023/01/30 11:43:44;;;;;;;16.47;3.10;;;8.10;97.90;;;;;;5013195;28;20474;-56
2023/01/30 11:46:15;;;;;;;14.10;2.63;;;8.10;97.60;;;;;;5014572;28;20436;-56
2023/01/30 11:48:49;;;;;;;11.30;2.87;;;8.10;96.80;;;;;;5017553;28;20432;-56
2023/01/30 11:51:17;;;;;;;11.27;3.00;;;8.10;97.60;;;;;;5017647;28;20527;-56
2023/01/30 11:53:46;;;;;;;11.00;2.80;;;8.10;97.30;;;;;;5017509;28;20535;-56
2023/01/30 11:56:17;;;;;;;11.30;2.90;;;8.20;97.20;;;;;;5017760;28;20449;-56
2023/01/30 11:58:52;;;;;;;12.40;4.63;;;8.30;97.50;;;;;;5017382;28;20463;-56
2023/01/30 12:01:18;;;;;;;9.83;2.50;;;8.30;96.70;;;;;;5017159;28;20861;-56
2023/01/30 12:03:49;;;;;;;10.47;3.00;;;8.30;96.70;;;;;;5017071;28;20842;-56
2023/01/30 12:06:24;;;;;;;10.63;3.17;;;8.30;96.90;;;;;;5017303;28;20450;-56
2023/01/30 12:08:54;;;;;;;15.90;3.60;;;8.30;96.80;;;;;;5017133;28;20456;-57
2023/01/30 12:11:27;;;;;;;8.40;2.27;;;8.30;96.40;;;;;;5017034;28;20884;-56
2023/01/30 12:14:05;;;;;;;14.17;3.30;;;8.30;96.30;;;;;;5017023;28;20846;-56
2023/01/30 12:16:48;;;;;;;10.60;3.10;;;8.30;96.50;;;;;;5017139;28;20447;-56
2023/01/30 12:19:31;;;;;;;11.67;3.00;;;8.30;96.90;;;;;;5017122;28;20475;-56
2023/01/30 12:22:01;;;;;;;8.30;2.23;;;8.20;96.10;;;;;;5016997;28;20437;-56
2023/01/30 12:24:35;;;;;;;12.67;3.27;;;8.20;95.70;;;;;;5016984;28;20475;-56
2023/01/30 12:27:06;;;;;;;9.87;2.13;;;8.10;96.20;;;;;;5016973;28;20439;-56
2023/01/30 12:29:38;;;;;;;14.83;3.40;;;8.00;96.70;;;;;;5016866;28;20433;-56
2023/01/30 12:32:09;;;;;;;14.37;3.00;;;8.00;97.00;;;;;;5016815;28;20440;-56
2023/01/30 12:34:36;;;;;;;10.03;2.40;;;8.10;97.80;;;;;;5016813;28;20441;-56
2023/01/30 12:37:18;;;;;;;10.57;2.50;;;8.20;97.30;;;;;;5016722;28;20461;-56
2023/01/30 12:39:56;;;;;;;17.83;2.63;;;8.30;97.20;;;;;;5016678;28;20475;-56
2023/01/30 12:42:40;;;;;;;7.20;2.63;;;8.40;96.40;;;;;;5016611;28;20482;-56
2023/01/30 12:45:19;;;;;;;13.53;3.50;;;8.50;96.20;;;;;;5016616;28;20439;-56
2023/01/30 12:48:04;;;;;;;14.50;2.80;;;8.60;95.60;;;;;;5016552;28;20437;-56
2023/01/30 12:50:45;;;;;;;11.97;2.70;;;8.60;94.90;;;;;;5016537;28;20438;-56
2023/01/30 12:53:30;;;;;;;12.43;2.67;;;8.60;94.30;;;;;;5016438;28;20471;-56
2023/01/30 12:56:22;;;;;;;13.50;2.90;;;8.60;94.20;;;;;;5016407;28;20444;-56
2023/01/30 12:58:56;;;;;;;11.00;2.83;;;8.50;93.60;;;;;;5015386;28;20494;-56
2023/01/30 13:01:32;;;;;;;13.70;2.40;;;8.40;93.50;;;;;;5016951;28;20437;-56
2023/01/30 13:04:09;;;;;;;7.93;2.50;;;8.40;93.30;;;;;;5016225;28;20482;-56
2023/01/30 13:06:50;;;;;;;11.40;2.37;;;8.40;93.40;;;;;;5016791;28;20433;-56